sensor_id;sensor_type;location;lat;lon;timestamp;pressure;altitude;pressure_sealevel;temperature;humidity
5651;BME280;40241;52.684;9.758;2022-11-06T00:01:11;101364.31;;;11.81;57.58
5651;BME280;40241;52.684;9.758;2022-11-06T00:03:37;101353.28;;;11.81;57.55
5651;BME280;40241;52.684;9.758;2022-11-06T00:06:07;101362.78;;;11.80;57.43
5651;BME280;40241;52.684;9.758;2022-11-06T00:08:51;101354.50;;;11.80;57.61
5651;BME280;40241;52.684;9.758;2022-11-06T00:11:16;101361.28;;;11.79;57.47
5651;BME280;40241;52.684;9.758;2022-11-06T00:13:43;101356.78;;;11.82;57.50
5651;BME280;40241;52.684;9.758;2022-11-06T00:16:10;101350.78;;;11.83;57.50
5651;BME280;40241;52.684;9.758;2022-11-06T00:18:37;101354.78;;;11.82;57.49
5651;BME280;40241;52.684;9.758;2022-11-06T00:21:08;101354.00;;;11.82;57.59
5651;BME280;40241;52.684;9.758;2022-11-06T00:23:34;101354.00;;;11.82;57.69
5651;BME280;40241;52.684;9.758;2022-11-06T00:25:59;101349.00;;;11.80;57.60
5651;BME280;40241;52.684;9.758;2022-11-06T00:28:25;101360.78;;;11.81;57.58
5651;BME280;40241;52.684;9.758;2022-11-06T00:30:50;101349.00;;;11.80;57.54
5651;BME280;40241;52.684;9.758;2022-11-06T00:33:15;101366.78;;;11.79;57.59
5651;BME280;40241;52.684;9.758;2022-11-06T00:35:41;101347.19;;;11.77;57.58
5651;BME280;40241;52.684;9.758;2022-11-06T00:38:06;101347.69;;;11.76;57.56
5651;BME280;40241;52.684;9.758;2022-11-06T00:40:32;101362.22;;;11.76;57.72
5651;BME280;40241;52.684;9.758;2022-11-06T00:42:57;101375.53;;;11.78;57.55
5651;BME280;40241;52.684;9.758;2022-11-06T00:45:24;101353.97;;;11.76;57.61
5651;BME280;40241;52.684;9.758;2022-11-06T00:47:50;101355.19;;;11.75;57.71
5651;BME280;40241;52.684;9.758;2022-11-06T00:50:16;101356.72;;;11.76;57.65
5651;BME280;40241;52.684;9.758;2022-11-06T00:52:42;101363.19;;;11.73;57.78
5651;BME280;40241;52.684;9.758;2022-11-06T00:55:08;101352.94;;;11.74;57.60
5651;BME280;40241;52.684;9.758;2022-11-06T00:57:33;101350.44;;;11.76;57.72
5651;BME280;40241;52.684;9.758;2022-11-06T00:59:59;101356.72;;;11.76;57.72
5651;BME280;40241;52.684;9.758;2022-11-06T01:02:24;101354.22;;;11.78;57.71
5651;BME280;40241;52.684;9.758;2022-11-06T01:04:50;101362.50;;;11.78;57.85
5651;BME280;40241;52.684;9.758;2022-11-06T01:07:15;101362.00;;;11.80;57.93
5651;BME280;40241;52.684;9.758;2022-11-06T01:09:40;101351.75;;;11.80;57.75
5651;BME280;40241;52.684;9.758;2022-11-06T01:12:06;101359.25;;;11.80;57.90
5651;BME280;40241;52.684;9.758;2022-11-06T01:14:31;101354.72;;;11.77;57.80
5651;BME280;40241;52.684;9.758;2022-11-06T01:16:57;101336.16;;;11.77;57.82
5651;BME280;40241;52.684;9.758;2022-11-06T01:19:22;101345.97;;;11.78;57.67
5651;BME280;40241;52.684;9.758;2022-11-06T01:21:50;101345.69;;;11.76;58.01
5651;BME280;40241;52.684;9.758;2022-11-06T01:24:25;101337.91;;;11.75;57.98
5651;BME280;40241;52.684;9.758;2022-11-06T01:26:51;101344.38;;;11.72;58.06
5651;BME280;40241;52.684;9.758;2022-11-06T01:29:18;101334.81;;;11.67;57.87
5651;BME280;40241;52.684;9.758;2022-11-06T01:31:45;101329.28;;;11.67;58.00
5651;BME280;40241;52.684;9.758;2022-11-06T01:34:12;101327.19;;;11.62;58.11
5651;BME280;40241;52.684;9.758;2022-11-06T01:36:38;101340.97;;;11.62;58.10
5651;BME280;40241;52.684;9.758;2022-11-06T01:39:05;101332.97;;;11.64;58.01
5651;BME280;40241;52.684;9.758;2022-11-06T01:41:35;101329.00;;;11.65;58.13
5651;BME280;40241;52.684;9.758;2022-11-06T01:45:00;101337.25;;;11.65;58.14
5651;BME280;40241;52.684;9.758;2022-11-06T01:46:51;101330.72;;;11.63;58.15
5651;BME280;40241;52.684;9.758;2022-11-06T01:49:16;101320.44;;;11.63;58.11
5651;BME280;40241;52.684;9.758;2022-11-06T01:51:52;101337.56;;;11.67;58.13
5651;BME280;40241;52.684;9.758;2022-11-06T01:54:20;101334.50;;;11.65;58.03
5651;BME280;40241;52.684;9.758;2022-11-06T01:56:48;101313.69;;;11.64;58.24
5651;BME280;40241;52.684;9.758;2022-11-06T01:59:17;101314.44;;;11.65;58.25
5651;BME280;40241;52.684;9.758;2022-11-06T02:01:44;101340.31;;;11.67;58.18
5651;BME280;40241;52.684;9.758;2022-11-06T02:06:39;101320.25;;;11.67;58.19
5651;BME280;40241;52.684;9.758;2022-11-06T02:09:04;101304.69;;;11.64;58.20
5651;BME280;40241;52.684;9.758;2022-11-06T02:11:43;101308.13;;;11.59;58.24
5651;BME280;40241;52.684;9.758;2022-11-06T02:14:22;101304.31;;;11.56;58.29
5651;BME280;40241;52.684;9.758;2022-11-06T02:17:10;101303.38;;;11.59;58.43
5651;BME280;40241;52.684;9.758;2022-11-06T02:22:44;101302.34;;;11.57;58.35
5651;BME280;40241;52.684;9.758;2022-11-06T02:25:32;101305.34;;;11.59;58.50
5651;BME280;40241;52.684;9.758;2022-11-06T02:28:05;101295.09;;;11.59;58.48
5651;BME280;40241;52.684;9.758;2022-11-06T02:30:35;101300.13;;;11.61;58.30
5651;BME280;40241;52.684;9.758;2022-11-06T02:33:09;101303.91;;;11.63;58.43
5651;BME280;40241;52.684;9.758;2022-11-06T02:35:44;101287.94;;;11.67;58.36
5651;BME280;40241;52.684;9.758;2022-11-06T02:38:17;101288.97;;;11.70;58.35
5651;BME280;40241;52.684;9.758;2022-11-06T02:40:49;101279.00;;;11.72;58.31
5651;BME280;40241;52.684;9.758;2022-11-06T02:43:16;101279.75;;;11.73;58.38
5651;BME280;40241;52.684;9.758;2022-11-06T02:45:51;101279.53;;;11.76;58.36
5651;BME280;40241;52.684;9.758;2022-11-06T02:48:25;101290.06;;;11.78;58.36
5651;BME280;40241;52.684;9.758;2022-11-06T02:50:53;101273.25;;;11.76;58.24
5651;BME280;40241;52.684;9.758;2022-11-06T02:53:23;101276.78;;;11.76;58.19
5651;BME280;40241;52.684;9.758;2022-11-06T02:55:52;101274.78;;;11.77;58.27
5651;BME280;40241;52.684;9.758;2022-11-06T02:58:39;101277.03;;;11.78;58.36
5651;BME280;40241;52.684;9.758;2022-11-06T03:01:16;101268.50;;;11.76;58.26
5651;BME280;40241;52.684;9.758;2022-11-06T03:03:50;101273.53;;;11.78;58.27
5651;BME280;40241;52.684;9.758;2022-11-06T03:06:25;101277.03;;;11.78;58.39
5651;BME280;40241;52.684;9.758;2022-11-06T03:09:00;101265.25;;;11.78;58.25
5651;BME280;40241;52.684;9.758;2022-11-06T03:11:30;101271.53;;;11.78;58.28
5651;BME280;40241;52.684;9.758;2022-11-06T03:22:30;101245.38;;;11.68;58.21
5651;BME280;40241;52.684;9.758;2022-11-06T03:25:02;101248.59;;;11.67;58.14
5651;BME280;40241;52.684;9.758;2022-11-06T03:27:35;101241.09;;;11.67;58.48
5651;BME280;40241;52.684;9.758;2022-11-06T03:30:12;101245.66;;;11.70;58.27
5651;BME280;40241;52.684;9.758;2022-11-06T03:33:00;101243.16;;;11.72;58.18
5651;BME280;40241;52.684;9.758;2022-11-06T03:35:39;101245.91;;;11.72;58.27
5651;BME280;40241;52.684;9.758;2022-11-06T03:38:16;101244.38;;;11.71;58.16
5651;BME280;40241;52.684;9.758;2022-11-06T03:40:47;101247.16;;;11.71;58.38
5651;BME280;40241;52.684;9.758;2022-11-06T03:43:17;101236.59;;;11.70;58.33
5651;BME280;40241;52.684;9.758;2022-11-06T03:45:45;101240.59;;;11.69;58.34
5651;BME280;40241;52.684;9.758;2022-11-06T03:48:22;101238.03;;;11.65;58.30
5651;BME280;40241;52.684;9.758;2022-11-06T03:51:19;101224.47;;;11.62;58.35
5651;BME280;40241;52.684;9.758;2022-11-06T03:53:56;101229.22;;;11.61;58.14
5651;BME280;40241;52.684;9.758;2022-11-06T03:59:03;101231.44;;;11.57;58.34
5651;BME280;40241;52.684;9.758;2022-11-06T04:01:34;101239.50;;;11.61;58.38
5651;BME280;40241;52.684;9.758;2022-11-06T04:04:11;101233.47;;;11.62;58.35
5651;BME280;40241;52.684;9.758;2022-11-06T04:06:53;101238.34;;;11.67;58.43
5651;BME280;40241;52.684;9.758;2022-11-06T04:09:24;101243.84;;;11.67;58.37
5651;BME280;40241;52.684;9.758;2022-11-06T04:12:10;101232.06;;;11.67;58.44
5651;BME280;40241;52.684;9.758;2022-11-06T04:14:57;101235.09;;;11.69;58.17
5651;BME280;40241;52.684;9.758;2022-11-06T04:17:26;101242.63;;;11.68;58.23
5651;BME280;40241;52.684;9.758;2022-11-06T04:19:56;101232.13;;;11.72;58.36
5651;BME280;40241;52.684;9.758;2022-11-06T04:27:59;101232.41;;;11.74;58.20
5651;BME280;40241;52.684;9.758;2022-11-06T04:30:31;101241.91;;;11.73;58.19
5651;BME280;40241;52.684;9.758;2022-11-06T04:33:13;101233.91;;;11.75;58.30
5651;BME280;40241;52.684;9.758;2022-11-06T04:43:40;101246.69;;;11.73;58.34
5651;BME280;40241;52.684;9.758;2022-11-06T04:46:10;101257.97;;;11.75;58.30
5651;BME280;40241;52.684;9.758;2022-11-06T04:48:39;101241.69;;;11.77;58.38
5651;BME280;40241;52.684;9.758;2022-11-06T04:51:07;101240.44;;;11.78;58.11
5651;BME280;40241;52.684;9.758;2022-11-06T04:53:34;101237.69;;;11.78;58.29
5651;BME280;40241;52.684;9.758;2022-11-06T04:56:08;101233.97;;;11.81;58.12
5651;BME280;40241;52.684;9.758;2022-11-06T04:58:34;101252.50;;;11.80;58.18
5651;BME280;40241;52.684;9.758;2022-11-06T05:00:59;101244.50;;;11.82;58.26
5651;BME280;40241;52.684;9.758;2022-11-06T05:03:25;101237.22;;;11.79;58.28
5651;BME280;40241;52.684;9.758;2022-11-06T05:05:50;101254.75;;;11.82;58.29
5651;BME280;40241;52.684;9.758;2022-11-06T05:08:18;101261.81;;;11.83;58.14
5651;BME280;40241;52.684;9.758;2022-11-06T05:10:44;101241.56;;;11.86;58.20
5651;BME280;40241;52.684;9.758;2022-11-06T05:13:10;101243.53;;;11.85;58.11
5651;BME280;40241;52.684;9.758;2022-11-06T05:15:36;101243.53;;;11.85;58.13
5651;BME280;40241;52.684;9.758;2022-11-06T05:18:03;101239.53;;;11.86;58.20
5651;BME280;40241;52.684;9.758;2022-11-06T05:20:29;101239.25;;;11.84;58.21
5651;BME280;40241;52.684;9.758;2022-11-06T05:22:54;101234.72;;;11.81;58.06
5651;BME280;40241;52.684;9.758;2022-11-06T05:25:28;101225.91;;;11.77;58.16
5651;BME280;40241;52.684;9.758;2022-11-06T05:27:55;101224.66;;;11.78;58.01
5651;BME280;40241;52.684;9.758;2022-11-06T05:30:21;101238.69;;;11.75;58.12
5651;BME280;40241;52.684;9.758;2022-11-06T05:32:47;101229.38;;;11.72;58.05
5651;BME280;40241;52.684;9.758;2022-11-06T05:35:13;101217.81;;;11.68;58.15
5651;BME280;40241;52.684;9.758;2022-11-06T05:37:39;101241.56;;;11.66;58.17
5651;BME280;40241;52.684;9.758;2022-11-06T05:40:04;101234.50;;;11.65;58.23
5651;BME280;40241;52.684;9.758;2022-11-06T05:42:30;101219.97;;;11.64;58.12
5651;BME280;40241;52.684;9.758;2022-11-06T05:44:55;101223.72;;;11.61;58.20
5651;BME280;40241;52.684;9.758;2022-11-06T05:47:21;101202.91;;;11.60;58.29
5651;BME280;40241;52.684;9.758;2022-11-06T05:49:46;101210.44;;;11.60;58.15
5651;BME280;40241;52.684;9.758;2022-11-06T05:52:12;101205.13;;;11.56;58.45
5651;BME280;40241;52.684;9.758;2022-11-06T05:54:37;101203.63;;;11.55;58.41
5651;BME280;40241;52.684;9.758;2022-11-06T05:57:03;101195.81;;;11.54;58.35
5651;BME280;40241;52.684;9.758;2022-11-06T05:59:28;101204.81;;;11.49;58.38
5651;BME280;40241;52.684;9.758;2022-11-06T06:01:53;101184.47;;;11.46;58.45
5651;BME280;40241;52.684;9.758;2022-11-06T06:04:19;101199.72;;;11.42;58.39
5651;BME280;40241;52.684;9.758;2022-11-06T06:06:44;101204.94;;;11.40;58.41
5651;BME280;40241;52.684;9.758;2022-11-06T06:09:10;101210.66;;;11.36;58.47
5651;BME280;40241;52.684;9.758;2022-11-06T06:11:36;101211.69;;;11.39;58.45
5651;BME280;40241;52.684;9.758;2022-11-06T06:14:01;101209.41;;;11.37;58.42
5651;BME280;40241;52.684;9.758;2022-11-06T06:16:27;101208.66;;;11.37;58.34
5651;BME280;40241;52.684;9.758;2022-11-06T06:18:52;101221.66;;;11.36;58.47
5651;BME280;40241;52.684;9.758;2022-11-06T06:21:18;101214.38;;;11.33;58.42
5651;BME280;40241;52.684;9.758;2022-11-06T06:23:44;101207.91;;;11.36;58.57
5651;BME280;40241;52.684;9.758;2022-11-06T06:26:09;101208.66;;;11.37;58.40
5651;BME280;40241;52.684;9.758;2022-11-06T06:28:35;101210.66;;;11.36;58.49
5651;BME280;40241;52.684;9.758;2022-11-06T06:31:06;101200.88;;;11.35;58.46
5651;BME280;40241;52.684;9.758;2022-11-06T06:33:32;101214.13;;;11.31;58.59
5651;BME280;40241;52.684;9.758;2022-11-06T06:36:02;101193.56;;;11.32;58.42
5651;BME280;40241;52.684;9.758;2022-11-06T06:38:27;101206.53;;;11.26;58.56
5651;BME280;40241;52.684;9.758;2022-11-06T06:40:53;101214.03;;;11.25;58.69
5651;BME280;40241;52.684;9.758;2022-11-06T06:43:18;101188.97;;;11.23;58.54
5651;BME280;40241;52.684;9.758;2022-11-06T06:45:44;101215.56;;;11.26;58.58
5651;BME280;40241;52.684;9.758;2022-11-06T06:48:09;101189.19;;;11.20;58.60
5651;BME280;40241;52.684;9.758;2022-11-06T06:50:35;101189.66;;;11.18;58.67
5651;BME280;40241;52.684;9.758;2022-11-06T06:53:00;101184.16;;;11.18;58.71
5651;BME280;40241;52.684;9.758;2022-11-06T06:55:26;101193.66;;;11.17;58.60
5651;BME280;40241;52.684;9.758;2022-11-06T06:57:58;101177.41;;;11.19;58.52
5651;BME280;40241;52.684;9.758;2022-11-06T07:00:25;101191.41;;;11.16;58.52
5651;BME280;40241;52.684;9.758;2022-11-06T07:02:51;101187.41;;;11.17;58.67
5651;BME280;40241;52.684;9.758;2022-11-06T07:05:16;101205.91;;;11.16;58.69
5651;BME280;40241;52.684;9.758;2022-11-06T07:07:42;101187.66;;;11.19;58.93
5651;BME280;40241;52.684;9.758;2022-11-06T07:10:07;101193.19;;;11.19;58.73
5651;BME280;40241;52.684;9.758;2022-11-06T07:12:33;101200.22;;;11.20;58.73
5651;BME280;40241;52.684;9.758;2022-11-06T07:14:58;101207.22;;;11.21;58.70
5651;BME280;40241;52.684;9.758;2022-11-06T07:17:23;101217.28;;;11.24;58.69
5651;BME280;40241;52.684;9.758;2022-11-06T07:19:49;101210.06;;;11.26;58.63
5651;BME280;40241;52.684;9.758;2022-11-06T07:22:15;101214.31;;;11.27;58.82
5651;BME280;40241;52.684;9.758;2022-11-06T07:24:40;101206.03;;;11.27;58.82
5651;BME280;40241;52.684;9.758;2022-11-06T07:27:06;101192.53;;;11.29;58.69
5651;BME280;40241;52.684;9.758;2022-11-06T07:29:31;101195.84;;;11.33;58.82
5651;BME280;40241;52.684;9.758;2022-11-06T07:31:57;101197.91;;;11.39;58.71
5651;BME280;40241;52.684;9.758;2022-11-06T07:34:22;101214.03;;;11.46;58.83
5651;BME280;40241;52.684;9.758;2022-11-06T07:36:47;101222.91;;;11.55;58.83
5651;BME280;40241;52.684;9.758;2022-11-06T07:39:13;101220.72;;;11.65;58.80
5651;BME280;40241;52.684;9.758;2022-11-06T07:41:38;101216.34;;;11.73;58.84
5651;BME280;40241;52.684;9.758;2022-11-06T07:44:04;101207.38;;;11.78;58.64
5651;BME280;40241;52.684;9.758;2022-11-06T07:46:30;101204.66;;;11.83;58.55
5651;BME280;40241;52.684;9.758;2022-11-06T07:48:55;101204.22;;;11.90;58.53
5651;BME280;40241;52.684;9.758;2022-11-06T07:51:20;101205.03;;;11.96;58.44
5651;BME280;40241;52.684;9.758;2022-11-06T07:53:46;101203.31;;;11.99;58.44
5651;BME280;40241;52.684;9.758;2022-11-06T07:56:11;101198.06;;;12.01;58.44
5651;BME280;40241;52.684;9.758;2022-11-06T07:58:37;101203.63;;;12.07;58.47
5651;BME280;40241;52.684;9.758;2022-11-06T08:01:03;101209.41;;;12.09;58.32
5651;BME280;40241;52.684;9.758;2022-11-06T08:03:28;101217.72;;;12.14;58.22
5651;BME280;40241;52.684;9.758;2022-11-06T08:05:55;101196.66;;;12.17;58.40
5651;BME280;40241;52.684;9.758;2022-11-06T08:08:20;101201.22;;;12.20;58.19
5651;BME280;40241;52.684;9.758;2022-11-06T08:10:46;101204.72;;;12.20;58.32
5651;BME280;40241;52.684;9.758;2022-11-06T08:13:14;101195.47;;;12.23;58.33
5651;BME280;40241;52.684;9.758;2022-11-06T08:15:40;101189.22;;;12.23;58.27
5651;BME280;40241;52.684;9.758;2022-11-06T08:18:06;101184.47;;;12.29;58.17
5651;BME280;40241;52.684;9.758;2022-11-06T08:20:33;101191.78;;;12.32;58.34
5651;BME280;40241;52.684;9.758;2022-11-06T08:23:00;101175.97;;;12.32;58.39
5651;BME280;40241;52.684;9.758;2022-11-06T08:25:27;101177.25;;;12.37;58.35
5651;BME280;40241;52.684;9.758;2022-11-06T08:27:54;101174.56;;;12.42;58.28
5651;BME280;40241;52.684;9.758;2022-11-06T08:30:20;101171.03;;;12.47;58.30
5651;BME280;40241;52.684;9.758;2022-11-06T08:32:45;101173.59;;;12.51;58.20
5651;BME280;40241;52.684;9.758;2022-11-06T08:35:11;101159.06;;;12.56;58.26
5651;BME280;40241;52.684;9.758;2022-11-06T08:37:36;101168.88;;;12.62;58.09
5651;BME280;40241;52.684;9.758;2022-11-06T08:40:02;101157.13;;;12.67;58.25
5651;BME280;40241;52.684;9.758;2022-11-06T08:42:28;101163.66;;;12.70;58.03
5651;BME280;40241;52.684;9.758;2022-11-06T08:44:54;101151.91;;;12.75;58.07
5651;BME280;40241;52.684;9.758;2022-11-06T08:47:19;101150.16;;;12.83;58.10
5651;BME280;40241;52.684;9.758;2022-11-06T08:49:45;101162.50;;;12.88;58.00
5651;BME280;40241;52.684;9.758;2022-11-06T08:52:10;101159.75;;;12.93;58.02
5651;BME280;40241;52.684;9.758;2022-11-06T08:54:35;101162.78;;;13.01;58.07
5651;BME280;40241;52.684;9.758;2022-11-06T08:57:01;101168.66;;;13.08;57.89
5651;BME280;40241;52.684;9.758;2022-11-06T08:59:26;101160.59;;;13.10;57.93
5651;BME280;40241;52.684;9.758;2022-11-06T09:01:52;101147.56;;;13.16;57.80
5651;BME280;40241;52.684;9.758;2022-11-06T09:04:17;101142.28;;;13.18;57.79
5651;BME280;40241;52.684;9.758;2022-11-06T09:06:43;101148.06;;;13.15;57.71
5651;BME280;40241;52.684;9.758;2022-11-06T09:09:08;101168.13;;;13.15;57.75
5651;BME280;40241;52.684;9.758;2022-11-06T09:11:34;101148.03;;;13.09;57.66
5651;BME280;40241;52.684;9.758;2022-11-06T09:13:59;101156.06;;;13.13;57.87
5651;BME280;40241;52.684;9.758;2022-11-06T09:16:25;101142.28;;;13.18;57.85
5651;BME280;40241;52.684;9.758;2022-11-06T09:18:53;101141.31;;;13.21;57.84
5651;BME280;40241;52.684;9.758;2022-11-06T09:21:20;101159.63;;;13.24;57.85
5651;BME280;40241;52.684;9.758;2022-11-06T09:23:45;101145.84;;;13.30;57.80
5651;BME280;40241;52.684;9.758;2022-11-06T09:26:13;101141.59;;;13.34;57.78
5651;BME280;40241;52.684;9.758;2022-11-06T09:28:39;101152.66;;;13.34;57.74
5651;BME280;40241;52.684;9.758;2022-11-06T09:31:05;101147.88;;;13.40;57.60
5651;BME280;40241;52.684;9.758;2022-11-06T09:33:31;101146.38;;;13.45;57.54
5651;BME280;40241;52.684;9.758;2022-11-06T09:35:56;101156.41;;;13.48;57.74
5651;BME280;40241;52.684;9.758;2022-11-06T09:38:22;101151.16;;;13.50;57.60
5651;BME280;40241;52.684;9.758;2022-11-06T09:40:52;101137.84;;;13.60;57.62
5651;BME280;40241;52.684;9.758;2022-11-06T09:46:31;101128.81;;;13.70;57.43
5651;BME280;40241;52.684;9.758;2022-11-06T09:51:36;101122.03;;;13.77;57.21
5651;BME280;40241;52.684;9.758;2022-11-06T09:54:32;101119.50;;;13.79;57.00
5651;BME280;40241;52.684;9.758;2022-11-06T09:57:08;101122.75;;;13.83;57.14
5651;BME280;40241;52.684;9.758;2022-11-06T09:59:36;101117.00;;;13.86;57.20
5651;BME280;40241;52.684;9.758;2022-11-06T10:02:19;101126.81;;;13.93;56.90
5651;BME280;40241;52.684;9.758;2022-11-06T10:04:54;101127.28;;;13.97;57.16
5651;BME280;40241;52.684;9.758;2022-11-06T10:07:31;101123.53;;;14.00;56.81
5651;BME280;40241;52.684;9.758;2022-11-06T10:09:59;101122.25;;;14.01;57.02
5651;BME280;40241;52.684;9.758;2022-11-06T10:15:21;101126.00;;;14.09;56.69
5651;BME280;40241;52.684;9.758;2022-11-06T10:18:11;101114.72;;;14.12;56.53
5651;BME280;40241;52.684;9.758;2022-11-06T10:23:19;101110.66;;;14.19;56.46
5651;BME280;40241;52.684;9.758;2022-11-06T10:26:11;101107.63;;;14.22;56.19
5651;BME280;40241;52.684;9.758;2022-11-06T10:28:57;101123.00;;;14.23;56.61
5651;BME280;40241;52.684;9.758;2022-11-06T10:31:45;101119.75;;;14.31;56.77
5651;BME280;40241;52.684;9.758;2022-11-06T10:34:16;101109.41;;;14.31;56.44
5651;BME280;40241;52.684;9.758;2022-11-06T10:36:58;101119.19;;;14.38;55.72
5651;BME280;40241;52.684;9.758;2022-11-06T10:39:34;101117.19;;;14.38;56.46
5651;BME280;40241;52.684;9.758;2022-11-06T10:45:03;101122.94;;;14.51;56.12
5651;BME280;40241;52.684;9.758;2022-11-06T10:47:31;101106.34;;;14.57;56.46
5651;BME280;40241;52.684;9.758;2022-11-06T10:50:00;101101.28;;;14.61;56.47
5651;BME280;40241;52.684;9.758;2022-11-06T10:55:53;101075.50;;;14.77;55.93
5651;BME280;40241;52.684;9.758;2022-11-06T10:58:31;101078.50;;;14.84;56.09
5651;BME280;40241;52.684;9.758;2022-11-06T11:01:01;101067.63;;;14.92;56.08
5651;BME280;40241;52.684;9.758;2022-11-06T11:03:34;101066.84;;;15.02;55.94
5651;BME280;40241;52.684;9.758;2022-11-06T11:06:00;101051.16;;;15.11;56.13
5651;BME280;40241;52.684;9.758;2022-11-06T11:11:03;101039.16;;;15.32;55.43
5651;BME280;40241;52.684;9.758;2022-11-06T11:13:30;101034.78;;;15.42;55.73
5651;BME280;40241;52.684;9.758;2022-11-06T11:15:55;101030.94;;;15.56;55.57
5651;BME280;40241;52.684;9.758;2022-11-06T11:18:26;101031.00;;;15.75;55.30
5651;BME280;40241;52.684;9.758;2022-11-06T11:23:40;101030.75;;;16.21;54.73
5651;BME280;40241;52.684;9.758;2022-11-06T11:26:20;101026.47;;;16.44;52.59
5651;BME280;40241;52.684;9.758;2022-11-06T11:28:54;101027.94;;;16.70;52.82
5651;BME280;40241;52.684;9.758;2022-11-06T11:31:29;101031.38;;;16.94;52.84
5651;BME280;40241;52.684;9.758;2022-11-06T11:33:58;101024.63;;;17.21;53.46
5651;BME280;40241;52.684;9.758;2022-11-06T11:36:24;101030.38;;;17.42;53.11
5651;BME280;40241;52.684;9.758;2022-11-06T11:38:50;101013.84;;;17.63;52.87
5651;BME280;40241;52.684;9.758;2022-11-06T11:46:20;100998.81;;;18.11;52.09
5651;BME280;40241;52.684;9.758;2022-11-06T11:51:27;101015.41;;;18.29;50.52
5651;BME280;40241;52.684;9.758;2022-11-06T11:54:01;101009.06;;;18.42;51.32
5651;BME280;40241;52.684;9.758;2022-11-06T11:56:27;101014.34;;;18.45;51.42
5651;BME280;40241;52.684;9.758;2022-11-06T11:58:58;101015.03;;;18.59;50.56
5651;BME280;40241;52.684;9.758;2022-11-06T12:01:36;101005.56;;;18.75;49.76
5651;BME280;40241;52.684;9.758;2022-11-06T12:04:19;101006.59;;;18.85;49.54
5651;BME280;40241;52.684;9.758;2022-11-06T12:06:54;101011.53;;;18.92;49.63
5651;BME280;40241;52.684;9.758;2022-11-06T12:09:21;101000.66;;;19.02;50.53
5651;BME280;40241;52.684;9.758;2022-11-06T12:11:47;101006.59;;;19.19;50.42
5651;BME280;40241;52.684;9.758;2022-11-06T12:14:32;100995.03;;;19.35;48.48
5651;BME280;40241;52.684;9.758;2022-11-06T12:19:32;100984.91;;;19.46;49.06
5651;BME280;40241;52.684;9.758;2022-11-06T12:22:04;100969.94;;;19.35;49.18
5651;BME280;40241;52.684;9.758;2022-11-06T12:24:54;100976.78;;;19.14;47.53
5651;BME280;40241;52.684;9.758;2022-11-06T12:27:21;100970.53;;;19.21;50.17
5651;BME280;40241;52.684;9.758;2022-11-06T12:30:13;100965.69;;;19.42;48.09
5651;BME280;40241;52.684;9.758;2022-11-06T12:33:03;100962.50;;;19.59;48.11
5651;BME280;40241;52.684;9.758;2022-11-06T12:35:41;100964.25;;;19.77;48.21
5651;BME280;40241;52.684;9.758;2022-11-06T12:38:24;100959.69;;;19.87;47.64
5651;BME280;40241;52.684;9.758;2022-11-06T12:43:36;100947.47;;;19.69;48.36
5651;BME280;40241;52.684;9.758;2022-11-06T13:10:39;100907.22;;;19.93;46.20
5651;BME280;40241;52.684;9.758;2022-11-06T13:13:30;100895.44;;;19.51;46.80
5651;BME280;40241;52.684;9.758;2022-11-06T13:16:10;100898.47;;;19.12;48.79
5651;BME280;40241;52.684;9.758;2022-11-06T13:18:40;100895.53;;;18.89;48.66
5651;BME280;40241;52.684;9.758;2022-11-06T13:23:58;100888.16;;;18.99;48.00
5651;BME280;40241;52.684;9.758;2022-11-06T13:26:42;100873.44;;;19.19;48.66
5651;BME280;40241;52.684;9.758;2022-11-06T13:29:11;100885.13;;;19.38;48.70
5651;BME280;40241;52.684;9.758;2022-11-06T13:31:46;100871.28;;;19.54;47.35
5651;BME280;40241;52.684;9.758;2022-11-06T13:34:44;100854.53;;;19.54;46.59
5651;BME280;40241;52.684;9.758;2022-11-06T13:37:15;100848.25;;;19.61;48.17
5651;BME280;40241;52.684;9.758;2022-11-06T13:39:43;100852.38;;;19.67;47.97
5651;BME280;40241;52.684;9.758;2022-11-06T13:42:22;100847.94;;;19.72;46.67
5651;BME280;40241;52.684;9.758;2022-11-06T13:44:51;100851.63;;;19.67;47.86
5651;BME280;40241;52.684;9.758;2022-11-06T13:47:24;100832.78;;;19.60;47.09
5651;BME280;40241;52.684;9.758;2022-11-06T13:50:11;100833.16;;;19.28;46.59
5651;BME280;40241;52.684;9.758;2022-11-06T13:58:14;100835.53;;;18.54;47.40
5651;BME280;40241;52.684;9.758;2022-11-06T14:06:00;100806.44;;;18.09;48.86
5651;BME280;40241;52.684;9.758;2022-11-06T14:10:58;100801.41;;;17.86;49.22
5651;BME280;40241;52.684;9.758;2022-11-06T14:13:31;100800.03;;;17.80;49.00
5651;BME280;40241;52.684;9.758;2022-11-06T14:21:53;100795.22;;;17.54;49.51
5651;BME280;40241;52.684;9.758;2022-11-06T14:24:29;100790.53;;;17.49;48.68
5651;BME280;40241;52.684;9.758;2022-11-06T14:26:55;100798.53;;;17.40;49.49
5651;BME280;40241;52.684;9.758;2022-11-06T14:32:08;100790.84;;;17.33;48.92
5651;BME280;40241;52.684;9.758;2022-11-06T14:34:39;100792.22;;;17.26;49.72
5651;BME280;40241;52.684;9.758;2022-11-06T14:45:17;100780.47;;;17.07;49.33
5651;BME280;40241;52.684;9.758;2022-11-06T14:47:48;100776.09;;;16.98;49.78
5651;BME280;40241;52.684;9.758;2022-11-06T14:50:33;100775.97;;;16.91;49.70
5651;BME280;40241;52.684;9.758;2022-11-06T14:53:15;100764.63;;;16.89;49.95
5651;BME280;40241;52.684;9.758;2022-11-06T14:55:50;100761.44;;;16.85;50.04
5651;BME280;40241;52.684;9.758;2022-11-06T14:58:26;100749.13;;;16.80;50.04
5651;BME280;40241;52.684;9.758;2022-11-06T15:03:54;100769.53;;;16.70;49.67
5651;BME280;40241;52.684;9.758;2022-11-06T15:09:13;100765.91;;;16.62;49.99
5651;BME280;40241;52.684;9.758;2022-11-06T15:16:34;100769.13;;;16.47;50.32
5651;BME280;40241;52.684;9.758;2022-11-06T15:19:04;100759.19;;;16.38;50.41
5651;BME280;40241;52.684;9.758;2022-11-06T15:21:36;100778.50;;;16.31;50.39
5651;BME280;40241;52.684;9.758;2022-11-06T15:24:10;100776.56;;;16.26;50.21
5651;BME280;40241;52.684;9.758;2022-11-06T15:26:50;100788.25;;;16.19;49.95
5651;BME280;40241;52.684;9.758;2022-11-06T15:29:27;100784.59;;;16.11;50.46